Greenspond, Canada
Current Conditions -  °F | °C
As of 7:00 AM on Saturday 20 Dec 2014 (Local Time) from CYQX Reporting Station
Broken Clouds Broken Clouds  
Wind Chill: 19°   Ceiling: 2800
Heat Index: 28°   Visibility: 15mi
Dew Point: 23°   Wind: 10mph
Humidity: 80%   Direction: 20°NNE
Pressure: 30.07"   Gusts: 17mph
Location:  49.05°N, 53.58°W
Report Text: CYQX 201000Z 02009G15KT 15SM FEW008 BKN028 BKN044 M02/M05 A3007 RMK SF1SC5SC1 SLP191
Loading
Personal Weather Stations






























Interactive Weather Map New forecast layout! Learn more

10-Day Weather Forecast

Advertisements
Track Severe Weather on mobile